Accueil
METAR-TAF:

METAR-TAF

Aéroports :

Amman, Jordanie

Aéroport civil d'Amman

latitude: 31-59N, longitude: 035-59E, altitude: 767 m

Observation

Le bulletin a été fait il y a 1 heure et 6 minutes, à 03:00 UTC
Vent 4 kt de nord/nord-est
Température 15°C
Humidité 72%
Pression 1014 hPa
Visibilité: 5000 m
brume sèche

METAR: OJAM 240300Z 03004KT 5000 HZ NSC 15/10 Q1014 NOSIG

Heure: 07:06 (04:06 UTC)

Prévision

Le bulletin a été fait il y a 5 heures et 16 minutes, à 22:50 UTC
Prévision valable du 24 à 00 UTC au 25 à 06 UTC
Vent 2 kt de direction variable
Visibilité: 6000 m
Temporairement
du 24 à 01 UTC au 24 à 05 UTC
Visibilité: 2000 m
brume
Evoluant progressivement
du 24 à 06 UTC au 24 à 08 UTC
Vent 12 kt de ouest
Visibilité: 5000 m
Quelques nuages à une hauteur de 3000 ft
brume sèche

TAF: OJAM 232250Z 2400/2506 VRB02KT 6000 NSC TEMPO 2401/2405 2000 BR BECMG 2406/2408 28012KT 5000 HZ FEW030

Observations et prévisions météorologiques de plus de 4000 aéroports (messages METAR et TAF).

Les stations disponibles sont représentées par des disques jaunes et rouges sur la carte.

Passer la souris dessus pour voir le nom de la station.

Cliquer dessus pour voir les observations et prévisions météorologiques.

Pour changer de carte: cliquez sur les boutons verts avec une croix noire pour zoomer, sur le bouton vert avec un tiret pour effectuer un zoom arrière, ou sur les flèches vertes pour les cartes adjacentes.


METAR-TAF: